createdAt,value
2022-11-17T00:02:21.298Z,64.57
2022-11-17T00:04:48.273Z,66.07
2022-11-17T00:07:15.258Z,73.57
2022-11-17T00:09:42.206Z,78.13
2022-11-17T00:12:32.687Z,73.88
2022-11-17T00:15:00.103Z,70.95
2022-11-17T00:17:27.086Z,70.45
2022-11-17T00:20:12.306Z,56.42
2022-11-17T00:22:39.157Z,62.28
2022-11-17T00:25:06.315Z,68.10
2022-11-17T00:27:33.216Z,70.85
2022-11-17T00:30:00.077Z,65.50
2022-11-17T00:32:45.375Z,66.88
2022-11-17T00:35:12.297Z,65.05
2022-11-17T00:38:03.636Z,64.28
2022-11-17T00:40:30.939Z,64.55
2022-11-17T00:42:57.870Z,59.38
2022-11-17T00:45:24.733Z,70.20
2022-11-17T00:47:51.610Z,63.30
2022-11-17T00:50:18.519Z,65.07
2022-11-17T00:52:45.368Z,67.72
2022-11-17T00:55:12.293Z,70.78
2022-11-17T00:57:39.144Z,73.35
2022-11-17T01:00:06.674Z,77.00
2022-11-17T01:02:33.539Z,71.88
2022-11-17T01:05:00.525Z,66.78
2022-11-17T01:07:27.408Z,64.28
2022-11-17T01:09:54.413Z,62.63
2022-11-17T01:12:21.273Z,68.28
2022-11-17T01:14:48.203Z,62.30
2022-11-17T01:17:15.159Z,63.80
2022-11-17T01:19:42.110Z,59.85
2022-11-17T01:22:08.958Z,62.92
2022-11-17T01:24:35.785Z,64.18
2022-11-17T01:27:02.677Z,57.28
2022-11-17T01:29:29.512Z,66.40
2022-11-17T01:31:56.385Z,58.40
2022-11-17T01:34:23.261Z,73.85
2022-11-17T01:37:08.503Z,61.28
2022-11-17T01:39:35.514Z,63.53
2022-11-17T01:42:13.772Z,59.60
2022-11-17T01:44:52.450Z,59.60
2022-11-17T01:47:37.784Z,64.45
2022-11-17T01:50:34.412Z,64.30
2022-11-17T01:53:05.754Z,62.33
2022-11-17T01:55:37.718Z,63.50
2022-11-17T01:58:10.748Z,61.85
2022-11-17T02:00:37.720Z,58.53
2022-11-17T02:03:07.376Z,61.08
2022-11-17T02:05:44.244Z,67.82
2022-11-17T02:08:12.331Z,60.67
2022-11-17T02:10:39.773Z,59.95
2022-11-17T02:13:07.677Z,55.58
2022-11-17T02:15:34.550Z,61.20
2022-11-17T02:18:02.433Z,72.40
2022-11-17T02:20:51.770Z,73.75
2022-11-17T02:23:33.817Z,62.90
2022-11-17T02:26:19.291Z,68.47
2022-11-17T02:29:04.054Z,60.28
2022-11-17T02:31:58.759Z,65.40
2022-11-17T02:34:45.142Z,59.33
2022-11-17T02:37:25.543Z,65.95
2022-11-17T02:40:18.324Z,62.78
2022-11-17T02:43:10.032Z,59.67
2022-11-17T02:45:42.474Z,69.78
2022-11-17T02:48:34.762Z,66.07
2022-11-17T02:51:04.029Z,72.30
2022-11-17T02:53:31.774Z,67.45
2022-11-17T02:56:01.964Z,63.38
2022-11-17T02:58:29.033Z,58.53
2022-11-17T03:01:37.737Z,64.13
2022-11-17T03:04:22.551Z,68.45
2022-11-17T03:07:34.256Z,74.33
2022-11-17T03:10:12.307Z,61.10
2022-11-17T03:13:05.889Z,62.65
2022-11-17T03:15:42.074Z,64.28
2022-11-17T03:18:27.882Z,69.38
2022-11-17T03:21:07.881Z,58.33
2022-11-17T03:23:34.981Z,61.88
2022-11-17T03:26:05.656Z,61.10
2022-11-17T03:28:33.236Z,62.95
2022-11-17T03:31:04.917Z,52.05
2022-11-17T03:33:33.043Z,52.20
2022-11-17T03:36:10.614Z,56.30
2022-11-17T03:38:42.724Z,56.90
2022-11-17T03:41:11.507Z,54.00
2022-11-17T03:43:40.503Z,61.13
2022-11-17T03:46:12.450Z,49.25
2022-11-17T03:48:50.854Z,61.08
2022-11-17T03:51:24.795Z,57.58
2022-11-17T03:53:54.136Z,53.33
2022-11-17T03:56:34.734Z,57.45
2022-11-17T03:59:10.512Z,54.75
2022-11-17T04:01:37.816Z,54.35
2022-11-17T04:04:05.195Z,57.30
2022-11-17T04:06:32.097Z,55.50
2022-11-17T04:08:58.952Z,56.55
2022-11-17T04:11:44.339Z,51.15
2022-11-17T04:14:29.932Z,60.58
2022-11-17T04:16:56.765Z,54.67
2022-11-17T04:19:23.606Z,54.13
2022-11-17T04:21:51.192Z,54.83
2022-11-17T04:24:18.552Z,59.42
2022-11-17T04:27:08.340Z,61.35
2022-11-17T04:29:35.166Z,54.08
2022-11-17T04:32:02.139Z,61.65
2022-11-17T04:34:29.008Z,53.90
2022-11-17T04:36:55.942Z,54.63
2022-11-17T04:39:22.786Z,68.55
2022-11-17T04:42:02.116Z,71.25
2022-11-17T04:44:31.606Z,75.72
2022-11-17T04:46:58.595Z,74.15
2022-11-17T04:49:26.356Z,67.30
2022-11-17T04:51:54.051Z,76.95
2022-11-17T04:54:26.362Z,75.05
2022-11-17T04:56:54.842Z,73.22
2022-11-17T04:59:21.909Z,72.20
2022-11-17T05:01:49.688Z,71.70
2022-11-17T05:04:38.431Z,66.50
2022-11-17T05:07:06.533Z,70.85
2022-11-17T05:09:33.488Z,67.78
2022-11-17T05:12:19.090Z,63.70
2022-11-17T05:14:47.819Z,55.78
2022-11-17T05:17:14.805Z,48.92
2022-11-17T05:19:44.272Z,56.83
2022-11-17T05:25:10.634Z,61.80
2022-11-17T05:27:37.851Z,56.90
2022-11-17T05:30:07.340Z,57.60
2022-11-17T05:32:34.698Z,65.05
2022-11-17T05:35:01.580Z,70.72
2022-11-17T05:37:28.721Z,71.40
2022-11-17T05:39:55.578Z,76.82
2022-11-17T05:42:22.462Z,81.10
2022-11-17T05:44:49.410Z,65.10
2022-11-17T05:47:16.752Z,71.43
2022-11-17T05:49:43.965Z,78.97
2022-11-17T05:52:10.830Z,82.57
2022-11-17T05:54:37.799Z,93.30
2022-11-17T05:57:11.801Z,75.38
2022-11-17T05:59:46.822Z,81.25
2022-11-17T06:02:26.930Z,87.05
2022-11-17T06:04:53.940Z,79.38
2022-11-17T06:07:21.191Z,85.70
2022-11-17T06:09:48.159Z,85.13
2022-11-17T06:12:15.608Z,79.00
2022-11-17T06:14:42.825Z,75.95
2022-11-17T06:17:33.915Z,80.35
2022-11-17T06:20:18.127Z,84.38
2022-11-17T06:22:48.365Z,85.18
2022-11-17T06:25:17.487Z,75.50
2022-11-17T06:27:45.591Z,83.80
2022-11-17T06:30:12.938Z,85.15
2022-11-17T06:32:43.715Z,70.38
2022-11-17T06:35:13.095Z,67.53
2022-11-17T06:37:40.052Z,70.07
2022-11-17T06:40:07.546Z,68.25
2022-11-17T06:42:52.713Z,55.53
2022-11-17T06:47:46.622Z,48.45
2022-11-17T06:50:13.468Z,35.30
2022-11-17T06:52:40.391Z,38.28
2022-11-17T06:55:08.084Z,28.52
2022-11-17T06:57:35.104Z,26.55
2022-11-17T07:00:02.423Z,30.17
2022-11-17T07:02:31.536Z,71.00
2022-11-17T07:04:58.480Z,58.15
2022-11-17T07:07:25.416Z,57.90
2022-11-17T07:09:52.416Z,47.97
2022-11-17T07:12:19.370Z,44.55
2022-11-17T07:14:46.331Z,41.53
2022-11-17T07:17:13.250Z,37.35
2022-11-17T07:19:40.182Z,20.75
2022-11-17T07:22:07.063Z,19.38
2022-11-17T07:24:33.957Z,15.68
2022-11-17T07:27:00.914Z,20.27
2022-11-17T07:29:28.976Z,17.27
2022-11-17T07:31:55.900Z,17.50
2022-11-17T07:34:23.082Z,20.80
2022-11-17T07:36:49.977Z,21.45
2022-11-17T07:39:21.194Z,15.82
2022-11-17T07:41:48.744Z,17.05
2022-11-17T07:44:15.711Z,18.92
2022-11-17T07:46:42.600Z,14.27
2022-11-17T07:49:09.642Z,16.50
2022-11-17T07:51:36.794Z,15.90
2022-11-17T07:54:03.886Z,12.85
2022-11-17T07:56:30.905Z,20.45
2022-11-17T07:58:57.891Z,12.05
2022-11-17T08:01:27.654Z,12.30
2022-11-17T08:03:54.841Z,13.25
2022-11-17T08:06:22.863Z,14.25
2022-11-17T08:08:50.085Z,11.00
2022-11-17T08:11:18.235Z,16.25
2022-11-17T08:13:45.532Z,8.95
2022-11-17T08:16:13.553Z,10.00
2022-11-17T08:18:40.862Z,12.30
2022-11-17T08:21:10.234Z,11.73
2022-11-17T08:23:38.014Z,20.48
2022-11-17T08:26:06.032Z,12.98
2022-11-17T08:28:34.420Z,14.13
2022-11-17T08:31:06.419Z,11.93
2022-11-17T08:33:34.308Z,14.15
2022-11-17T08:36:02.290Z,15.25
2022-11-17T08:38:29.617Z,11.45
2022-11-17T08:40:57.548Z,14.65
2022-11-17T08:43:25.178Z,20.15
2022-11-17T08:45:52.121Z,12.32
2022-11-17T08:48:19.411Z,15.20
2022-11-17T08:50:46.412Z,14.65
2022-11-17T08:53:18.704Z,13.15
2022-11-17T08:55:46.084Z,11.15
2022-11-17T08:58:13.262Z,15.00
2022-11-17T09:00:40.920Z,17.42
2022-11-17T09:03:09.909Z,12.90
2022-11-17T09:05:42.125Z,13.57
2022-11-17T09:08:43.147Z,14.57
2022-11-17T09:10:57.783Z,13.15
2022-11-17T09:13:24.866Z,12.43
2022-11-17T09:15:51.764Z,10.15
2022-11-17T09:18:18.698Z,11.50
2022-11-17T09:20:46.442Z,14.85
2022-11-17T09:23:13.494Z,12.65
2022-11-17T09:25:40.369Z,9.35
2022-11-17T09:28:07.308Z,11.88
2022-11-17T09:30:34.230Z,9.27
2022-11-17T09:33:01.120Z,9.93
2022-11-17T09:35:28.012Z,6.38
2022-11-17T09:37:59.784Z,9.40
2022-11-17T09:40:29.096Z,10.20
2022-11-17T09:42:58.290Z,10.15
2022-11-17T09:45:37.478Z,11.85
2022-11-17T09:48:39.569Z,9.98
2022-11-17T09:51:04.504Z,10.43
2022-11-17T09:53:44.910Z,10.93
2022-11-17T09:56:13.741Z,12.63
2022-11-17T09:58:50.542Z,11.25
2022-11-17T10:01:19.877Z,11.52
2022-11-17T10:03:49.422Z,13.82
2022-11-17T10:06:23.034Z,11.38
2022-11-17T10:09:01.932Z,14.07
2022-11-17T10:11:36.408Z,11.82
2022-11-17T10:14:04.058Z,11.23
2022-11-17T10:16:31.546Z,12.20
2022-11-17T10:18:58.673Z,12.85
2022-11-17T10:21:30.495Z,14.70
2022-11-17T10:23:59.137Z,16.77
2022-11-17T10:26:28.152Z,11.00
2022-11-17T10:29:09.422Z,15.15
2022-11-17T10:31:45.087Z,13.02
2022-11-17T10:34:31.922Z,13.18
2022-11-17T10:37:21.811Z,13.10
2022-11-17T10:39:48.743Z,16.83
2022-11-17T10:42:21.649Z,14.15
2022-11-17T10:44:52.985Z,17.60
2022-11-17T10:47:32.911Z,13.30
2022-11-17T10:50:20.636Z,22.88
2022-11-17T10:52:49.213Z,16.98
2022-11-17T10:55:31.789Z,16.45
2022-11-17T10:58:16.515Z,15.77
2022-11-17T11:00:44.944Z,37.60
2022-11-17T11:03:33.720Z,26.42
2022-11-17T11:06:24.502Z,29.30
2022-11-17T11:08:57.123Z,26.15
2022-11-17T11:11:54.347Z,20.98
2022-11-17T11:14:39.315Z,21.33
2022-11-17T11:17:17.247Z,29.02
2022-11-17T11:19:51.621Z,21.17
2022-11-17T11:22:57.865Z,19.02
2022-11-17T11:25:38.014Z,18.98
2022-11-17T11:28:17.593Z,19.95
2022-11-17T11:31:00.793Z,18.02
2022-11-17T11:33:43.241Z,21.45
2022-11-17T11:36:28.805Z,18.98
2022-11-17T11:42:04.739Z,19.63
2022-11-17T11:45:07.172Z,22.63
2022-11-17T11:47:34.026Z,28.48
2022-11-17T11:50:14.333Z,24.90
2022-11-17T11:52:48.430Z,39.88
2022-11-17T11:55:21.572Z,34.15
2022-11-17T11:58:15.055Z,30.42
2022-11-17T12:00:44.684Z,21.67
2022-11-17T12:03:49.856Z,27.90
2022-11-17T12:06:40.713Z,17.50
2022-11-17T12:09:25.453Z,22.58
2022-11-17T12:12:03.060Z,26.15
2022-11-17T12:14:35.445Z,29.27
2022-11-17T12:17:12.909Z,31.95
2022-11-17T12:19:54.125Z,24.38
2022-11-17T12:22:29.962Z,22.00
2022-11-17T12:25:00.368Z,23.35
2022-11-17T12:27:33.582Z,25.90
2022-11-17T12:30:02.021Z,29.58
2022-11-17T12:32:44.130Z,25.27
2022-11-17T12:35:29.192Z,22.77
2022-11-17T12:38:14.208Z,25.55
2022-11-17T12:40:49.031Z,22.38
2022-11-17T12:43:15.917Z,19.70
2022-11-17T12:46:04.385Z,26.83
2022-11-17T12:48:36.016Z,26.98
2022-11-17T12:51:21.242Z,26.83
2022-11-17T12:54:25.484Z,23.45
2022-11-17T12:57:05.283Z,23.65
2022-11-17T13:00:03.406Z,19.02
2022-11-17T13:03:11.874Z,19.98
2022-11-17T13:05:38.809Z,20.40
2022-11-17T13:08:14.720Z,18.75
2022-11-17T13:10:41.922Z,18.13
2022-11-17T13:13:20.658Z,14.77
2022-11-17T13:15:57.074Z,16.50
2022-11-17T13:18:30.870Z,12.20
2022-11-17T13:20:58.205Z,15.13
2022-11-17T13:23:27.893Z,12.80
2022-11-17T13:26:11.318Z,22.92
2022-11-17T13:28:38.237Z,17.45
2022-11-17T13:31:05.286Z,14.02
2022-11-17T13:33:38.449Z,15.02
2022-11-17T13:36:19.846Z,13.90
2022-11-17T13:38:49.334Z,22.00
2022-11-17T13:41:19.174Z,20.45
2022-11-17T13:43:47.385Z,25.77
2022-11-17T13:46:14.418Z,26.17
2022-11-17T13:48:45.710Z,33.83
2022-11-17T13:51:39.013Z,29.20
2022-11-17T13:54:12.182Z,38.40
2022-11-17T13:56:48.152Z,34.38
2022-11-17T13:59:37.996Z,33.83
2022-11-17T14:02:17.035Z,42.17
2022-11-17T14:05:06.257Z,29.88
2022-11-17T14:07:35.646Z,26.70
2022-11-17T14:10:20.844Z,29.25
2022-11-17T14:12:48.287Z,21.05
2022-11-17T14:15:21.271Z,17.83
2022-11-17T14:17:56.724Z,15.88
2022-11-17T14:20:23.683Z,12.57
2022-11-17T14:23:23.015Z,18.33
2022-11-17T14:25:51.310Z,10.60
2022-11-17T14:28:20.937Z,7.28
2022-11-17T14:30:49.654Z,12.40
2022-11-17T14:33:16.609Z,8.15
2022-11-17T14:35:45.397Z,8.68
2022-11-17T14:38:22.129Z,15.65
2022-11-17T14:40:51.723Z,13.45
2022-11-17T14:43:21.042Z,10.75
2022-11-17T14:45:49.459Z,10.27
2022-11-17T14:48:20.435Z,13.50
2022-11-17T14:50:48.631Z,10.00
2022-11-17T14:53:15.551Z,8.07
2022-11-17T14:55:42.443Z,10.15
2022-11-17T14:58:10.252Z,11.63
2022-11-17T15:00:37.665Z,10.35
2022-11-17T15:03:04.866Z,12.88
2022-11-17T15:05:31.825Z,12.98
2022-11-17T15:07:58.959Z,11.25
2022-11-17T15:10:25.905Z,13.40
2022-11-17T15:12:52.824Z,10.20
2022-11-17T15:15:19.884Z,7.68
2022-11-17T15:17:46.811Z,7.55
2022-11-17T15:20:13.759Z,8.75
2022-11-17T15:22:41.006Z,8.18
2022-11-17T15:25:08.633Z,10.63
2022-11-17T15:27:35.516Z,5.20
2022-11-17T15:30:02.527Z,8.13
2022-11-17T15:32:29.875Z,7.60
2022-11-17T15:34:56.746Z,5.65
2022-11-17T15:37:23.806Z,7.13
2022-11-17T15:39:50.752Z,5.07
2022-11-17T15:42:17.977Z,9.57
2022-11-17T15:44:44.869Z,6.00
2022-11-17T15:47:11.767Z,11.43
2022-11-17T15:49:38.664Z,6.15
2022-11-17T15:52:05.622Z,9.82
2022-11-17T15:54:33.065Z,10.85
2022-11-17T15:57:01.579Z,7.50
2022-11-17T15:59:28.485Z,10.70
2022-11-17T16:01:55.529Z,5.88
2022-11-17T16:04:22.495Z,8.57
2022-11-17T16:06:49.505Z,4.28
2022-11-17T16:09:17.310Z,4.82
2022-11-17T16:11:44.834Z,9.85
2022-11-17T16:14:11.931Z,5.63
2022-11-17T16:16:39.830Z,15.23
2022-11-17T16:19:07.259Z,13.27
2022-11-17T16:21:34.314Z,8.50
2022-11-17T16:24:02.343Z,8.82
2022-11-17T16:26:30.174Z,10.60
2022-11-17T16:29:01.504Z,8.95
2022-11-17T16:31:30.608Z,4.50
2022-11-17T16:34:00.796Z,5.97
2022-11-17T16:36:35.959Z,6.00
2022-11-17T16:39:06.012Z,6.75
2022-11-17T16:41:35.822Z,5.75
2022-11-17T16:44:06.542Z,6.82
2022-11-17T16:46:33.449Z,5.55
2022-11-17T16:49:06.691Z,6.97
2022-11-17T16:51:34.587Z,9.77
2022-11-17T16:54:03.956Z,8.00
2022-11-17T16:56:31.645Z,7.30
2022-11-17T16:58:59.045Z,8.20
2022-11-17T17:01:30.346Z,12.52
2022-11-17T17:04:06.500Z,15.20
2022-11-17T17:06:34.677Z,10.02
2022-11-17T17:09:04.643Z,10.48
2022-11-17T17:11:33.067Z,13.73
2022-11-17T17:14:03.122Z,10.75
2022-11-17T17:16:31.906Z,10.18
2022-11-17T17:19:00.802Z,7.75
2022-11-17T17:21:29.184Z,9.38
2022-11-17T17:23:57.034Z,10.45
2022-11-17T17:26:26.016Z,8.32
2022-11-17T17:28:55.929Z,11.57
2022-11-17T17:31:24.158Z,13.07
2022-11-17T17:33:51.900Z,9.55
2022-11-17T17:36:21.454Z,11.95
2022-11-17T17:38:54.922Z,10.60
2022-11-17T17:41:26.047Z,10.45
2022-11-17T17:44:01.266Z,12.95
2022-11-17T17:48:57.685Z,12.63
2022-11-17T17:51:27.459Z,14.50
2022-11-17T17:53:56.026Z,11.85
2022-11-17T17:56:23.682Z,12.63
2022-11-17T17:58:51.984Z,11.95
2022-11-17T18:01:27.534Z,11.75
2022-11-17T18:04:05.161Z,11.07
2022-11-17T18:06:38.198Z,10.18
2022-11-17T18:09:07.357Z,11.35
2022-11-17T18:11:35.813Z,11.75
2022-11-17T18:14:03.667Z,11.38
2022-11-17T18:16:32.990Z,15.00
2022-11-17T18:19:02.464Z,17.00
2022-11-17T18:21:29.987Z,19.88
2022-11-17T18:23:58.954Z,17.23
2022-11-17T18:26:30.707Z,15.60
2022-11-17T18:29:03.333Z,20.25
2022-11-17T18:31:32.558Z,21.23
2022-11-17T18:34:05.253Z,24.88
2022-11-17T18:36:32.699Z,18.98
2022-11-17T18:38:59.648Z,27.30
2022-11-17T18:41:27.666Z,24.15
2022-11-17T18:43:55.367Z,22.38
2022-11-17T18:46:24.182Z,21.73
2022-11-17T18:48:52.080Z,23.50
2022-11-17T18:51:21.909Z,22.02
2022-11-17T18:53:50.206Z,20.48
2022-11-17T18:56:20.190Z,24.88
2022-11-17T18:58:47.202Z,28.20
2022-11-17T19:01:19.704Z,33.08
2022-11-17T19:03:48.997Z,29.60
2022-11-17T19:06:17.256Z,26.73
2022-11-17T19:08:44.483Z,35.67
2022-11-17T19:11:12.332Z,28.83
2022-11-17T19:13:40.917Z,34.67
2022-11-17T19:16:16.997Z,32.42
2022-11-17T19:18:45.743Z,30.02
2022-11-17T19:21:26.048Z,34.58
2022-11-17T19:23:54.965Z,23.00
2022-11-17T19:26:24.677Z,19.23
2022-11-17T19:28:56.044Z,17.23
2022-11-17T19:31:24.065Z,17.25
2022-11-17T19:33:51.404Z,10.88
2022-11-17T19:36:21.291Z,4.28
2022-11-17T19:38:50.055Z,3.85
2022-11-17T19:41:24.521Z,3.85
2022-11-17T19:43:55.799Z,3.30
2022-11-17T19:46:23.860Z,9.57
2022-11-17T19:48:51.633Z,7.10
2022-11-17T19:51:19.933Z,2.88
2022-11-17T19:53:51.806Z,3.70
2022-11-17T19:56:19.523Z,6.05
2022-11-17T19:58:47.426Z,6.07
2022-11-17T20:01:19.772Z,4.32
2022-11-17T20:03:48.391Z,3.83
2022-11-17T20:06:17.923Z,4.57
2022-11-17T20:08:45.355Z,8.15
2022-11-17T20:11:15.164Z,17.13
2022-11-17T20:13:42.419Z,25.30
2022-11-17T20:16:14.864Z,29.77
2022-11-17T20:18:42.998Z,33.97
2022-11-17T20:21:11.285Z,34.58
2022-11-17T20:23:39.194Z,33.80
2022-11-17T20:26:17.671Z,34.80
2022-11-17T20:28:45.003Z,38.17
2022-11-17T20:31:14.280Z,33.05
2022-11-17T20:33:42.407Z,32.20
2022-11-17T20:36:12.332Z,25.77
2022-11-17T20:38:39.809Z,31.65
2022-11-17T20:41:07.211Z,27.80
2022-11-17T20:43:35.393Z,33.53
2022-11-17T20:46:03.245Z,25.92
2022-11-17T20:48:31.621Z,34.70
2022-11-17T20:51:13.561Z,30.95
2022-11-17T20:53:41.225Z,40.10
2022-11-17T20:56:09.868Z,34.30
2022-11-17T20:58:37.155Z,29.52
2022-11-17T21:01:14.792Z,28.85
2022-11-17T21:03:42.449Z,25.40
2022-11-17T21:06:09.880Z,26.35
2022-11-17T21:08:38.974Z,20.42
2022-11-17T21:11:08.856Z,19.52
2022-11-17T21:13:37.282Z,23.00
2022-11-17T21:16:12.869Z,20.58
2022-11-17T21:18:46.225Z,28.67
2022-11-17T21:21:13.348Z,13.02
2022-11-17T21:23:41.662Z,12.60
2022-11-17T21:26:13.830Z,18.08
2022-11-17T21:28:41.569Z,13.05
2022-11-17T21:31:20.047Z,11.80
2022-11-17T21:33:47.362Z,10.68
2022-11-17T21:36:18.053Z,8.82
2022-11-17T21:38:45.630Z,13.02
2022-11-17T21:41:21.069Z,9.30
2022-11-17T21:43:50.640Z,6.85
2022-11-17T21:46:23.604Z,8.18
2022-11-17T21:48:52.113Z,10.95
2022-11-17T21:51:27.249Z,5.93
2022-11-17T21:53:56.133Z,4.47
2022-11-17T21:56:26.841Z,4.10
2022-11-17T21:58:58.330Z,6.63
2022-11-17T22:01:25.545Z,6.43
2022-11-17T22:03:52.576Z,6.28
2022-11-17T22:06:22.876Z,3.83
2022-11-17T22:08:50.730Z,3.97
2022-11-17T22:11:36.307Z,3.92
2022-11-17T22:14:16.799Z,3.95
2022-11-17T22:16:52.235Z,5.07
2022-11-17T22:19:21.199Z,5.63
2022-11-17T22:21:50.270Z,3.40
2022-11-17T22:24:17.899Z,4.32
2022-11-17T22:26:45.849Z,7.03
2022-11-17T22:29:16.095Z,4.13
2022-11-17T22:31:44.334Z,7.13
2022-11-17T22:34:12.682Z,5.03
2022-11-17T22:36:39.741Z,4.03
2022-11-17T22:39:06.646Z,6.35
2022-11-17T22:41:33.634Z,8.05
2022-11-17T22:44:00.747Z,3.58
2022-11-17T22:46:28.624Z,4.38
2022-11-17T22:48:56.206Z,4.25
2022-11-17T22:51:44.350Z,4.03
2022-11-17T22:54:11.324Z,4.18
2022-11-17T22:56:38.206Z,6.05
2022-11-17T22:59:05.125Z,5.72
2022-11-17T23:01:32.123Z,3.92
2022-11-17T23:03:59.200Z,7.45
2022-11-17T23:06:29.404Z,9.80
2022-11-17T23:08:58.346Z,4.13
2022-11-17T23:11:37.450Z,4.90
2022-11-17T23:14:08.162Z,4.80
2022-11-17T23:16:36.886Z,5.35
2022-11-17T23:19:05.081Z,4.93
2022-11-17T23:21:32.209Z,7.40
2022-11-17T23:23:59.156Z,6.47
2022-11-17T23:26:26.039Z,5.60
2022-11-17T23:28:52.890Z,6.50
2022-11-17T23:31:19.764Z,6.50
2022-11-17T23:33:48.148Z,4.63
2022-11-17T23:36:20.346Z,7.43
2022-11-17T23:38:48.162Z,4.65
2022-11-17T23:41:17.269Z,4.82
2022-11-17T23:43:44.139Z,6.68
2022-11-17T23:46:13.652Z,5.13
2022-11-17T23:48:41.843Z,7.53
2022-11-17T23:51:18.852Z,5.20
2022-11-17T23:53:52.225Z,6.60
2022-11-17T23:56:20.594Z,4.82
2022-11-17T23:58:48.064Z,7.85
